sensor_id;sensor_type;location;lat;lon;timestamp;temperature;humidity
17385;DHT22;8810;48.680;8.894;2022-12-18T00:00:45;-12.00;99.90
17385;DHT22;8810;48.680;8.894;2022-12-18T00:03:13;-12.00;99.90
17385;DHT22;8810;48.680;8.894;2022-12-18T00:05:46;-12.00;99.90
17385;DHT22;8810;48.680;8.894;2022-12-18T00:08:13;-12.00;99.90
17385;DHT22;8810;48.680;8.894;2022-12-18T00:10:42;-12.10;99.90
17385;DHT22;8810;48.680;8.894;2022-12-18T00:13:10;-12.10;99.90
17385;DHT22;8810;48.680;8.894;2022-12-18T00:15:37;-12.10;99.90
17385;DHT22;8810;48.680;8.894;2022-12-18T00:18:05;-12.10;99.90
17385;DHT22;8810;48.680;8.894;2022-12-18T00:20:35;-12.20;99.90
17385;DHT22;8810;48.680;8.894;2022-12-18T00:23:02;-12.20;99.90
17385;DHT22;8810;48.680;8.894;2022-12-18T00:25:29;-12.20;99.90
17385;DHT22;8810;48.680;8.894;2022-12-18T00:27:57;-12.20;99.90
17385;DHT22;8810;48.680;8.894;2022-12-18T00:30:24;-12.20;99.90
17385;DHT22;8810;48.680;8.894;2022-12-18T00:32:51;-12.20;99.90
17385;DHT22;8810;48.680;8.894;2022-12-18T00:35:18;-12.30;99.90
17385;DHT22;8810;48.680;8.894;2022-12-18T00:37:45;-12.30;99.90
17385;DHT22;8810;48.680;8.894;2022-12-18T00:40:12;-12.30;99.90
17385;DHT22;8810;48.680;8.894;2022-12-18T00:42:39;-12.30;99.90
17385;DHT22;8810;48.680;8.894;2022-12-18T00:45:25;-12.30;99.90
17385;DHT22;8810;48.680;8.894;2022-12-18T00:47:52;-12.30;99.90
17385;DHT22;8810;48.680;8.894;2022-12-18T00:50:19;-12.40;99.90
17385;DHT22;8810;48.680;8.894;2022-12-18T00:52:46;-12.40;99.90
17385;DHT22;8810;48.680;8.894;2022-12-18T00:55:14;-12.40;99.90
17385;DHT22;8810;48.680;8.894;2022-12-18T00:57:41;-12.40;99.90
17385;DHT22;8810;48.680;8.894;2022-12-18T01:00:10;-12.50;99.90
17385;DHT22;8810;48.680;8.894;2022-12-18T01:02:38;-12.50;99.90
17385;DHT22;8810;48.680;8.894;2022-12-18T01:05:06;-12.40;99.90
17385;DHT22;8810;48.680;8.894;2022-12-18T01:07:33;-12.40;99.90
17385;DHT22;8810;48.680;8.894;2022-12-18T01:10:00;-12.40;99.90
17385;DHT22;8810;48.680;8.894;2022-12-18T01:12:27;-12.40;99.90
17385;DHT22;8810;48.680;8.894;2022-12-18T01:14:54;-12.40;99.90
17385;DHT22;8810;48.680;8.894;2022-12-18T01:17:20;-12.40;99.90
17385;DHT22;8810;48.680;8.894;2022-12-18T01:19:49;-12.40;99.90
17385;DHT22;8810;48.680;8.894;2022-12-18T01:22:16;-12.40;99.90
17385;DHT22;8810;48.680;8.894;2022-12-18T01:24:42;-12.40;99.90
17385;DHT22;8810;48.680;8.894;2022-12-18T01:27:09;-12.40;99.90
17385;DHT22;8810;48.680;8.894;2022-12-18T01:29:36;-12.50;99.90
17385;DHT22;8810;48.680;8.894;2022-12-18T01:32:03;-12.50;99.90
17385;DHT22;8810;48.680;8.894;2022-12-18T01:34:30;-12.50;99.90
17385;DHT22;8810;48.680;8.894;2022-12-18T01:36:58;-12.50;99.90
17385;DHT22;8810;48.680;8.894;2022-12-18T01:39:25;-12.40;99.90
17385;DHT22;8810;48.680;8.894;2022-12-18T01:41:52;-12.30;99.90
17385;DHT22;8810;48.680;8.894;2022-12-18T01:44:54;-12.30;99.90
17385;DHT22;8810;48.680;8.894;2022-12-18T01:47:24;-12.20;99.90
17385;DHT22;8810;48.680;8.894;2022-12-18T01:49:52;-12.20;99.90
17385;DHT22;8810;48.680;8.894;2022-12-18T01:52:21;-12.20;99.90
17385;DHT22;8810;48.680;8.894;2022-12-18T01:54:49;-12.20;99.90
17385;DHT22;8810;48.680;8.894;2022-12-18T01:57:17;-12.20;99.90
17385;DHT22;8810;48.680;8.894;2022-12-18T01:59:46;-12.10;99.90
17385;DHT22;8810;48.680;8.894;2022-12-18T02:02:16;-12.20;99.90
17385;DHT22;8810;48.680;8.894;2022-12-18T02:04:44;-12.20;99.90
17385;DHT22;8810;48.680;8.894;2022-12-18T02:07:14;-12.20;99.90
17385;DHT22;8810;48.680;8.894;2022-12-18T02:09:47;-12.20;99.90
17385;DHT22;8810;48.680;8.894;2022-12-18T02:12:19;-12.20;99.90
17385;DHT22;8810;48.680;8.894;2022-12-18T02:14:53;-12.20;99.90
17385;DHT22;8810;48.680;8.894;2022-12-18T02:17:24;-12.20;99.90
17385;DHT22;8810;48.680;8.894;2022-12-18T02:20:03;-12.20;99.90
17385;DHT22;8810;48.680;8.894;2022-12-18T02:22:39;-12.20;99.90
17385;DHT22;8810;48.680;8.894;2022-12-18T02:25:25;-12.20;99.90
17385;DHT22;8810;48.680;8.894;2022-12-18T02:27:57;-12.30;99.90
17385;DHT22;8810;48.680;8.894;2022-12-18T02:30:26;-12.40;99.90
17385;DHT22;8810;48.680;8.894;2022-12-18T02:32:56;-12.40;99.90
17385;DHT22;8810;48.680;8.894;2022-12-18T02:35:27;-12.40;99.90
17385;DHT22;8810;48.680;8.894;2022-12-18T02:37:55;-12.30;99.90
17385;DHT22;8810;48.680;8.894;2022-12-18T02:40:24;-12.30;99.90
17385;DHT22;8810;48.680;8.894;2022-12-18T02:42:52;-12.30;99.90
17385;DHT22;8810;48.680;8.894;2022-12-18T02:45:20;-12.30;99.90
17385;DHT22;8810;48.680;8.894;2022-12-18T02:47:49;-12.30;99.90
17385;DHT22;8810;48.680;8.894;2022-12-18T02:50:20;-12.30;99.90
17385;DHT22;8810;48.680;8.894;2022-12-18T02:52:55;-12.30;99.90
17385;DHT22;8810;48.680;8.894;2022-12-18T02:55:33;-12.30;99.90
17385;DHT22;8810;48.680;8.894;2022-12-18T02:58:11;-12.30;99.90
17385;DHT22;8810;48.680;8.894;2022-12-18T03:00:46;-12.30;99.90
17385;DHT22;8810;48.680;8.894;2022-12-18T03:03:19;-12.30;99.90
17385;DHT22;8810;48.680;8.894;2022-12-18T03:05:52;-12.20;99.90
17385;DHT22;8810;48.680;8.894;2022-12-18T03:08:22;-12.20;99.90
17385;DHT22;8810;48.680;8.894;2022-12-18T03:10:56;-12.10;99.90
17385;DHT22;8810;48.680;8.894;2022-12-18T03:13:28;-12.10;99.90
17385;DHT22;8810;48.680;8.894;2022-12-18T03:16:00;-12.00;99.90
17385;DHT22;8810;48.680;8.894;2022-12-18T03:18:32;-12.00;99.90
17385;DHT22;8810;48.680;8.894;2022-12-18T03:21:04;-12.00;99.90
17385;DHT22;8810;48.680;8.894;2022-12-18T03:23:36;-11.90;99.90
17385;DHT22;8810;48.680;8.894;2022-12-18T03:26:09;-12.00;99.90
17385;DHT22;8810;48.680;8.894;2022-12-18T03:28:41;-12.00;99.90
17385;DHT22;8810;48.680;8.894;2022-12-18T03:31:12;-12.00;99.90
17385;DHT22;8810;48.680;8.894;2022-12-18T03:33:42;-12.00;99.90
17385;DHT22;8810;48.680;8.894;2022-12-18T03:36:12;-11.90;99.90
17385;DHT22;8810;48.680;8.894;2022-12-18T03:38:39;-12.00;99.90
17385;DHT22;8810;48.680;8.894;2022-12-18T03:41:10;-12.00;99.90
17385;DHT22;8810;48.680;8.894;2022-12-18T03:43:45;-12.00;99.90
17385;DHT22;8810;48.680;8.894;2022-12-18T03:46:23;-12.00;99.90
17385;DHT22;8810;48.680;8.894;2022-12-18T03:48:54;-12.00;99.90
17385;DHT22;8810;48.680;8.894;2022-12-18T03:51:26;-12.00;99.90
17385;DHT22;8810;48.680;8.894;2022-12-18T03:53:57;-12.00;99.90
17385;DHT22;8810;48.680;8.894;2022-12-18T03:56:27;-12.00;99.90
17385;DHT22;8810;48.680;8.894;2022-12-18T03:58:55;-12.10;99.90
17385;DHT22;8810;48.680;8.894;2022-12-18T04:01:29;-12.00;99.90
17385;DHT22;8810;48.680;8.894;2022-12-18T04:03:59;-12.00;99.90
17385;DHT22;8810;48.680;8.894;2022-12-18T04:06:26;-11.90;99.90
17385;DHT22;8810;48.680;8.894;2022-12-18T04:08:54;-11.90;99.90
17385;DHT22;8810;48.680;8.894;2022-12-18T04:11:21;-11.90;99.90
17385;DHT22;8810;48.680;8.894;2022-12-18T04:13:48;-12.00;99.90
17385;DHT22;8810;48.680;8.894;2022-12-18T04:16:15;-12.00;99.90
17385;DHT22;8810;48.680;8.894;2022-12-18T04:18:43;-12.00;99.90
17385;DHT22;8810;48.680;8.894;2022-12-18T04:21:10;-12.00;99.90
17385;DHT22;8810;48.680;8.894;2022-12-18T04:23:36;-12.00;99.90
17385;DHT22;8810;48.680;8.894;2022-12-18T04:26:04;-12.00;99.90
17385;DHT22;8810;48.680;8.894;2022-12-18T04:28:30;-11.90;99.90
17385;DHT22;8810;48.680;8.894;2022-12-18T04:30:57;-11.90;99.90
17385;DHT22;8810;48.680;8.894;2022-12-18T04:33:24;-11.80;99.90
17385;DHT22;8810;48.680;8.894;2022-12-18T04:35:52;-11.80;99.90
17385;DHT22;8810;48.680;8.894;2022-12-18T04:38:19;-11.80;99.90
17385;DHT22;8810;48.680;8.894;2022-12-18T04:40:46;-11.70;99.90
17385;DHT22;8810;48.680;8.894;2022-12-18T04:43:12;-11.70;99.90
17385;DHT22;8810;48.680;8.894;2022-12-18T04:45:39;-11.70;99.90
17385;DHT22;8810;48.680;8.894;2022-12-18T04:48:06;-11.70;99.90
17385;DHT22;8810;48.680;8.894;2022-12-18T04:50:33;-11.60;99.90
17385;DHT22;8810;48.680;8.894;2022-12-18T04:53:01;-11.50;99.90
17385;DHT22;8810;48.680;8.894;2022-12-18T04:55:28;-11.50;99.90
17385;DHT22;8810;48.680;8.894;2022-12-18T04:57:55;-11.50;99.90
17385;DHT22;8810;48.680;8.894;2022-12-18T05:00:22;-11.40;99.90
17385;DHT22;8810;48.680;8.894;2022-12-18T05:02:48;-11.40;99.90
17385;DHT22;8810;48.680;8.894;2022-12-18T05:05:15;-11.30;99.90
17385;DHT22;8810;48.680;8.894;2022-12-18T05:07:42;-11.20;99.90
17385;DHT22;8810;48.680;8.894;2022-12-18T05:10:10;-11.10;99.90
17385;DHT22;8810;48.680;8.894;2022-12-18T05:12:37;-11.00;99.90
17385;DHT22;8810;48.680;8.894;2022-12-18T05:15:23;-11.00;99.90
17385;DHT22;8810;48.680;8.894;2022-12-18T05:17:50;-10.90;99.90
17385;DHT22;8810;48.680;8.894;2022-12-18T05:20:17;-10.80;99.90
17385;DHT22;8810;48.680;8.894;2022-12-18T05:22:44;-10.80;99.90
17385;DHT22;8810;48.680;8.894;2022-12-18T05:25:12;-10.70;99.90
17385;DHT22;8810;48.680;8.894;2022-12-18T05:27:39;-10.70;99.90
17385;DHT22;8810;48.680;8.894;2022-12-18T05:30:07;-10.60;99.90
17385;DHT22;8810;48.680;8.894;2022-12-18T05:32:34;-10.60;99.90
17385;DHT22;8810;48.680;8.894;2022-12-18T05:35:01;-10.50;99.90
17385;DHT22;8810;48.680;8.894;2022-12-18T05:37:28;-10.50;99.90
17385;DHT22;8810;48.680;8.894;2022-12-18T05:39:54;-10.50;99.90
17385;DHT22;8810;48.680;8.894;2022-12-18T05:42:22;-10.40;99.90
17385;DHT22;8810;48.680;8.894;2022-12-18T05:44:49;-10.40;99.90
17385;DHT22;8810;48.680;8.894;2022-12-18T05:47:16;-10.40;99.90
17385;DHT22;8810;48.680;8.894;2022-12-18T05:49:43;-10.30;99.90
17385;DHT22;8810;48.680;8.894;2022-12-18T05:52:10;-10.30;99.90
17385;DHT22;8810;48.680;8.894;2022-12-18T05:54:37;-10.30;99.90
17385;DHT22;8810;48.680;8.894;2022-12-18T05:57:04;-10.20;99.90
17385;DHT22;8810;48.680;8.894;2022-12-18T05:59:32;-10.30;99.90
17385;DHT22;8810;48.680;8.894;2022-12-18T06:01:59;-10.20;99.90
17385;DHT22;8810;48.680;8.894;2022-12-18T06:04:26;-10.20;99.90
17385;DHT22;8810;48.680;8.894;2022-12-18T06:06:56;-10.30;99.90
17385;DHT22;8810;48.680;8.894;2022-12-18T06:09:23;-10.40;99.90
17385;DHT22;8810;48.680;8.894;2022-12-18T06:11:51;-10.40;99.90
17385;DHT22;8810;48.680;8.894;2022-12-18T06:14:18;-10.50;99.90
17385;DHT22;8810;48.680;8.894;2022-12-18T06:16:46;-10.50;99.90
17385;DHT22;8810;48.680;8.894;2022-12-18T06:19:15;-10.60;99.90
17385;DHT22;8810;48.680;8.894;2022-12-18T06:21:42;-10.60;99.90
17385;DHT22;8810;48.680;8.894;2022-12-18T06:24:09;-10.60;99.90
17385;DHT22;8810;48.680;8.894;2022-12-18T06:26:37;-10.60;99.90
17385;DHT22;8810;48.680;8.894;2022-12-18T06:29:04;-10.70;99.90
17385;DHT22;8810;48.680;8.894;2022-12-18T06:31:31;-10.70;99.90
17385;DHT22;8810;48.680;8.894;2022-12-18T06:34:01;-10.80;99.90
17385;DHT22;8810;48.680;8.894;2022-12-18T06:36:28;-10.80;99.90
17385;DHT22;8810;48.680;8.894;2022-12-18T06:38:58;-10.90;99.90
17385;DHT22;8810;48.680;8.894;2022-12-18T06:41:24;-10.90;99.90
17385;DHT22;8810;48.680;8.894;2022-12-18T06:43:51;-10.90;99.90
17385;DHT22;8810;48.680;8.894;2022-12-18T06:46:18;-11.00;99.90
17385;DHT22;8810;48.680;8.894;2022-12-18T06:48:47;-11.00;99.90
17385;DHT22;8810;48.680;8.894;2022-12-18T06:51:17;-11.00;99.90
17385;DHT22;8810;48.680;8.894;2022-12-18T06:53:44;-11.10;99.90
17385;DHT22;8810;48.680;8.894;2022-12-18T06:56:11;-11.20;99.90
17385;DHT22;8810;48.680;8.894;2022-12-18T06:58:38;-11.20;99.90
17385;DHT22;8810;48.680;8.894;2022-12-18T07:01:07;-11.20;99.90
17385;DHT22;8810;48.680;8.894;2022-12-18T07:03:35;-11.30;99.90
17385;DHT22;8810;48.680;8.894;2022-12-18T07:06:02;-11.30;99.90
17385;DHT22;8810;48.680;8.894;2022-12-18T07:08:30;-11.30;99.90
17385;DHT22;8810;48.680;8.894;2022-12-18T07:10:57;-11.30;99.90
17385;DHT22;8810;48.680;8.894;2022-12-18T07:13:24;-11.40;99.90
17385;DHT22;8810;48.680;8.894;2022-12-18T07:15:52;-11.40;99.90
17385;DHT22;8810;48.680;8.894;2022-12-18T07:18:18;-11.40;99.90
17385;DHT22;8810;48.680;8.894;2022-12-18T07:20:45;-11.40;99.90
17385;DHT22;8810;48.680;8.894;2022-12-18T07:23:12;-11.50;99.90
17385;DHT22;8810;48.680;8.894;2022-12-18T07:25:40;-11.50;99.90
17385;DHT22;8810;48.680;8.894;2022-12-18T07:28:07;-11.50;99.90
17385;DHT22;8810;48.680;8.894;2022-12-18T07:30:36;-11.50;99.90
17385;DHT22;8810;48.680;8.894;2022-12-18T07:33:03;-11.50;99.90
17385;DHT22;8810;48.680;8.894;2022-12-18T07:35:30;-11.50;99.90
17385;DHT22;8810;48.680;8.894;2022-12-18T07:37:57;-11.50;99.90
17385;DHT22;8810;48.680;8.894;2022-12-18T07:40:26;-11.40;99.90
17385;DHT22;8810;48.680;8.894;2022-12-18T07:42:54;-11.40;99.90
17385;DHT22;8810;48.680;8.894;2022-12-18T07:45:21;-11.40;99.90
17385;DHT22;8810;48.680;8.894;2022-12-18T07:47:48;-11.40;99.90
17385;DHT22;8810;48.680;8.894;2022-12-18T07:50:15;-11.40;99.90
17385;DHT22;8810;48.680;8.894;2022-12-18T07:52:41;-11.30;99.90
17385;DHT22;8810;48.680;8.894;2022-12-18T07:55:08;-11.30;99.90
17385;DHT22;8810;48.680;8.894;2022-12-18T07:57:35;-11.30;99.90
17385;DHT22;8810;48.680;8.894;2022-12-18T08:00:05;-11.30;99.90
17385;DHT22;8810;48.680;8.894;2022-12-18T08:02:32;-11.20;99.90
17385;DHT22;8810;48.680;8.894;2022-12-18T08:04:59;-11.20;99.90
17385;DHT22;8810;48.680;8.894;2022-12-18T08:07:25;-11.20;99.90
17385;DHT22;8810;48.680;8.894;2022-12-18T08:09:52;-11.20;99.90
17385;DHT22;8810;48.680;8.894;2022-12-18T08:12:19;-11.10;99.90
17385;DHT22;8810;48.680;8.894;2022-12-18T08:14:46;-11.10;99.90
17385;DHT22;8810;48.680;8.894;2022-12-18T08:17:14;-11.00;99.90
17385;DHT22;8810;48.680;8.894;2022-12-18T08:19:40;-11.00;99.90
17385;DHT22;8810;48.680;8.894;2022-12-18T08:22:07;-11.00;99.90
17385;DHT22;8810;48.680;8.894;2022-12-18T08:24:34;-10.90;99.90
17385;DHT22;8810;48.680;8.894;2022-12-18T08:27:01;-10.80;99.90
17385;DHT22;8810;48.680;8.894;2022-12-18T08:29:28;-10.70;99.90
17385;DHT22;8810;48.680;8.894;2022-12-18T08:31:55;-10.50;99.90
17385;DHT22;8810;48.680;8.894;2022-12-18T08:34:24;-10.10;99.90
17385;DHT22;8810;48.680;8.894;2022-12-18T08:36:50;-9.80;99.90
17385;DHT22;8810;48.680;8.894;2022-12-18T08:39:17;-9.50;99.90
17385;DHT22;8810;48.680;8.894;2022-12-18T08:41:44;-9.10;99.90
17385;DHT22;8810;48.680;8.894;2022-12-18T08:44:31;-8.60;99.90
17385;DHT22;8810;48.680;8.894;2022-12-18T08:47:04;-8.00;99.90
17385;DHT22;8810;48.680;8.894;2022-12-18T08:49:32;-7.50;99.90
17385;DHT22;8810;48.680;8.894;2022-12-18T08:51:59;-7.10;99.90
17385;DHT22;8810;48.680;8.894;2022-12-18T08:54:27;-6.70;99.90
17385;DHT22;8810;48.680;8.894;2022-12-18T08:56:54;-6.40;99.90
17385;DHT22;8810;48.680;8.894;2022-12-18T08:59:21;-6.00;99.90
17385;DHT22;8810;48.680;8.894;2022-12-18T09:01:49;-5.70;99.90
17385;DHT22;8810;48.680;8.894;2022-12-18T09:04:15;-5.40;99.90
17385;DHT22;8810;48.680;8.894;2022-12-18T09:06:44;-5.10;99.90
17385;DHT22;8810;48.680;8.894;2022-12-18T09:09:10;-4.80;99.90
17385;DHT22;8810;48.680;8.894;2022-12-18T09:11:38;-4.50;99.90
17385;DHT22;8810;48.680;8.894;2022-12-18T09:14:05;-4.20;99.90
17385;DHT22;8810;48.680;8.894;2022-12-18T09:16:33;-3.90;99.90
17385;DHT22;8810;48.680;8.894;2022-12-18T09:19:01;-3.60;99.90
17385;DHT22;8810;48.680;8.894;2022-12-18T09:21:29;-3.40;99.90
17385;DHT22;8810;48.680;8.894;2022-12-18T09:23:58;-3.20;99.90
17385;DHT22;8810;48.680;8.894;2022-12-18T09:26:25;-3.00;99.90
17385;DHT22;8810;48.680;8.894;2022-12-18T09:28:53;-2.80;99.90
17385;DHT22;8810;48.680;8.894;2022-12-18T09:31:22;-2.70;99.90
17385;DHT22;8810;48.680;8.894;2022-12-18T09:33:49;-2.50;99.90
17385;DHT22;8810;48.680;8.894;2022-12-18T09:36:17;-2.30;99.90
17385;DHT22;8810;48.680;8.894;2022-12-18T09:38:44;-2.00;99.90
17385;DHT22;8810;48.680;8.894;2022-12-18T09:44:17;-1.60;99.90
17385;DHT22;8810;48.680;8.894;2022-12-18T09:46:49;-1.70;99.90
17385;DHT22;8810;48.680;8.894;2022-12-18T09:49:19;-1.60;99.90
17385;DHT22;8810;48.680;8.894;2022-12-18T09:51:50;-1.40;99.90
17385;DHT22;8810;48.680;8.894;2022-12-18T09:54:21;-1.20;99.90
17385;DHT22;8810;48.680;8.894;2022-12-18T09:56:50;-0.90;99.90
17385;DHT22;8810;48.680;8.894;2022-12-18T09:59:21;-0.90;99.90
17385;DHT22;8810;48.680;8.894;2022-12-18T10:01:49;-1.00;99.90
17385;DHT22;8810;48.680;8.894;2022-12-18T10:04:16;-1.00;99.90
17385;DHT22;8810;48.680;8.894;2022-12-18T10:06:49;-1.00;99.90
17385;DHT22;8810;48.680;8.894;2022-12-18T10:09:27;-1.00;99.90
17385;DHT22;8810;48.680;8.894;2022-12-18T10:12:02;-1.10;99.90
17385;DHT22;8810;48.680;8.894;2022-12-18T10:14:39;-1.00;99.90
17385;DHT22;8810;48.680;8.894;2022-12-18T10:17:13;-0.90;99.90
17385;DHT22;8810;48.680;8.894;2022-12-18T10:19:45;-0.50;99.90
17385;DHT22;8810;48.680;8.894;2022-12-18T10:22:26;-0.20;99.90
17385;DHT22;8810;48.680;8.894;2022-12-18T10:24:59;0.10;99.90
17385;DHT22;8810;48.680;8.894;2022-12-18T10:27:30;0.20;99.90
17385;DHT22;8810;48.680;8.894;2022-12-18T10:29:58;0.50;99.90
17385;DHT22;8810;48.680;8.894;2022-12-18T10:32:26;0.40;99.90
17385;DHT22;8810;48.680;8.894;2022-12-18T10:34:55;0.70;99.90
17385;DHT22;8810;48.680;8.894;2022-12-18T10:37:24;1.00;99.90
17385;DHT22;8810;48.680;8.894;2022-12-18T10:40:07;1.30;99.90
17385;DHT22;8810;48.680;8.894;2022-12-18T10:42:36;1.20;99.90
17385;DHT22;8810;48.680;8.894;2022-12-18T10:45:08;0.90;99.90
17385;DHT22;8810;48.680;8.894;2022-12-18T10:47:35;0.70;99.90
17385;DHT22;8810;48.680;8.894;2022-12-18T10:50:03;0.70;99.90
17385;DHT22;8810;48.680;8.894;2022-12-18T10:52:30;0.60;99.90
17385;DHT22;8810;48.680;8.894;2022-12-18T10:54:59;0.30;99.90
17385;DHT22;8810;48.680;8.894;2022-12-18T10:57:31;0.40;99.90
17385;DHT22;8810;48.680;8.894;2022-12-18T11:00:23;0.70;99.90
17385;DHT22;8810;48.680;8.894;2022-12-18T11:02:50;0.90;99.90
17385;DHT22;8810;48.680;8.894;2022-12-18T11:05:26;1.10;99.90
17385;DHT22;8810;48.680;8.894;2022-12-18T11:07:53;1.30;99.90
17385;DHT22;8810;48.680;8.894;2022-12-18T11:10:22;1.50;99.90
17385;DHT22;8810;48.680;8.894;2022-12-18T11:12:49;1.80;99.90
17385;DHT22;8810;48.680;8.894;2022-12-18T11:15:20;2.00;99.90
17385;DHT22;8810;48.680;8.894;2022-12-18T11:17:48;2.00;99.90
17385;DHT22;8810;48.680;8.894;2022-12-18T11:20:30;2.00;99.90
17385;DHT22;8810;48.680;8.894;2022-12-18T11:22:59;1.70;99.90
17385;DHT22;8810;48.680;8.894;2022-12-18T11:25:27;1.50;99.90
17385;DHT22;8810;48.680;8.894;2022-12-18T11:27:59;0.70;99.90
17385;DHT22;8810;48.680;8.894;2022-12-18T11:30:28;0.20;99.90
17385;DHT22;8810;48.680;8.894;2022-12-18T11:33:00;0.40;99.90
17385;DHT22;8810;48.680;8.894;2022-12-18T11:35:37;0.60;99.90
17385;DHT22;8810;48.680;8.894;2022-12-18T11:38:12;0.70;99.90
17385;DHT22;8810;48.680;8.894;2022-12-18T11:40:44;0.30;99.90
17385;DHT22;8810;48.680;8.894;2022-12-18T11:43:15;0.50;99.90
17385;DHT22;8810;48.680;8.894;2022-12-18T11:45:48;0.60;99.90
17385;DHT22;8810;48.680;8.894;2022-12-18T11:48:21;0.80;99.90
17385;DHT22;8810;48.680;8.894;2022-12-18T11:50:50;0.90;99.90
17385;DHT22;8810;48.680;8.894;2022-12-18T11:53:18;1.30;99.90
17385;DHT22;8810;48.680;8.894;2022-12-18T11:55:54;1.50;99.90
17385;DHT22;8810;48.680;8.894;2022-12-18T11:58:31;1.50;99.90
17385;DHT22;8810;48.680;8.894;2022-12-18T12:01:10;1.30;99.90
17385;DHT22;8810;48.680;8.894;2022-12-18T12:04:15;1.30;99.90
17385;DHT22;8810;48.680;8.894;2022-12-18T12:06:53;1.40;99.90
17385;DHT22;8810;48.680;8.894;2022-12-18T12:09:27;1.30;99.90
17385;DHT22;8810;48.680;8.894;2022-12-18T12:12:05;1.30;99.90
17385;DHT22;8810;48.680;8.894;2022-12-18T12:14:48;1.20;99.90
17385;DHT22;8810;48.680;8.894;2022-12-18T12:17:26;1.10;99.90
17385;DHT22;8810;48.680;8.894;2022-12-18T12:19:58;1.20;99.90
17385;DHT22;8810;48.680;8.894;2022-12-18T12:22:33;1.10;99.90
17385;DHT22;8810;48.680;8.894;2022-12-18T12:25:17;1.10;99.90
17385;DHT22;8810;48.680;8.894;2022-12-18T12:27:52;1.00;99.90
17385;DHT22;8810;48.680;8.894;2022-12-18T12:30:22;1.00;99.90
17385;DHT22;8810;48.680;8.894;2022-12-18T12:33:04;1.00;99.90
17385;DHT22;8810;48.680;8.894;2022-12-18T12:35:42;0.90;99.90
17385;DHT22;8810;48.680;8.894;2022-12-18T12:38:13;0.90;99.90
17385;DHT22;8810;48.680;8.894;2022-12-18T12:40:46;0.90;99.90
17385;DHT22;8810;48.680;8.894;2022-12-18T12:43:31;0.80;99.90
17385;DHT22;8810;48.680;8.894;2022-12-18T12:46:01;0.80;99.90
17385;DHT22;8810;48.680;8.894;2022-12-18T12:48:35;0.70;99.90
17385;DHT22;8810;48.680;8.894;2022-12-18T12:51:09;0.60;99.90
17385;DHT22;8810;48.680;8.894;2022-12-18T12:53:38;0.50;99.90
17385;DHT22;8810;48.680;8.894;2022-12-18T12:56:07;0.40;99.90
17385;DHT22;8810;48.680;8.894;2022-12-18T12:58:41;0.40;99.90
17385;DHT22;8810;48.680;8.894;2022-12-18T13:01:17;0.40;99.90
17385;DHT22;8810;48.680;8.894;2022-12-18T13:03:59;0.30;99.90
17385;DHT22;8810;48.680;8.894;2022-12-18T13:06:36;0.30;99.90
17385;DHT22;8810;48.680;8.894;2022-12-18T13:09:04;0.30;99.90
17385;DHT22;8810;48.680;8.894;2022-12-18T13:11:35;0.30;99.90
17385;DHT22;8810;48.680;8.894;2022-12-18T13:14:22;0.20;99.90
17385;DHT22;8810;48.680;8.894;2022-12-18T13:16:49;0.20;99.90
17385;DHT22;8810;48.680;8.894;2022-12-18T13:19:23;0.10;99.90
17385;DHT22;8810;48.680;8.894;2022-12-18T13:21:54;0.10;99.90
17385;DHT22;8810;48.680;8.894;2022-12-18T13:24:24;0.10;99.90
17385;DHT22;8810;48.680;8.894;2022-12-18T13:26:51;0.00;99.90
17385;DHT22;8810;48.680;8.894;2022-12-18T13:29:40;-0.10;99.90
17385;DHT22;8810;48.680;8.894;2022-12-18T13:32:19;-0.30;99.90
17385;DHT22;8810;48.680;8.894;2022-12-18T13:34:48;-0.30;99.90
17385;DHT22;8810;48.680;8.894;2022-12-18T13:37:40;-0.40;99.90
17385;DHT22;8810;48.680;8.894;2022-12-18T13:43:24;-0.60;99.90
17385;DHT22;8810;48.680;8.894;2022-12-18T13:46:05;-0.60;99.90
17385;DHT22;8810;48.680;8.894;2022-12-18T13:48:34;-0.60;99.90
17385;DHT22;8810;48.680;8.894;2022-12-18T13:51:05;-0.60;99.90
17385;DHT22;8810;48.680;8.894;2022-12-18T13:53:36;-0.60;99.90
17385;DHT22;8810;48.680;8.894;2022-12-18T13:56:05;-0.60;99.90
17385;DHT22;8810;48.680;8.894;2022-12-18T13:58:32;-0.60;99.90
17385;DHT22;8810;48.680;8.894;2022-12-18T14:00:59;-0.50;99.90
17385;DHT22;8810;48.680;8.894;2022-12-18T14:03:30;-0.50;99.90
17385;DHT22;8810;48.680;8.894;2022-12-18T14:06:01;-0.60;99.90
17385;DHT22;8810;48.680;8.894;2022-12-18T14:08:37;-0.60;99.90
17385;DHT22;8810;48.680;8.894;2022-12-18T14:11:05;-0.60;99.90
17385;DHT22;8810;48.680;8.894;2022-12-18T14:13:37;-0.60;99.90
17385;DHT22;8810;48.680;8.894;2022-12-18T14:16:06;-0.70;99.90
17385;DHT22;8810;48.680;8.894;2022-12-18T14:18:41;-0.80;99.90
17385;DHT22;8810;48.680;8.894;2022-12-18T14:21:18;-0.90;99.90
17385;DHT22;8810;48.680;8.894;2022-12-18T14:23:47;-1.00;99.90
17385;DHT22;8810;48.680;8.894;2022-12-18T14:26:23;-1.00;99.90
17385;DHT22;8810;48.680;8.894;2022-12-18T14:28:51;-1.10;99.90
17385;DHT22;8810;48.680;8.894;2022-12-18T14:31:20;-1.10;99.90
17385;DHT22;8810;48.680;8.894;2022-12-18T14:33:47;-1.20;99.90
17385;DHT22;8810;48.680;8.894;2022-12-18T14:36:17;-1.30;99.90
17385;DHT22;8810;48.680;8.894;2022-12-18T14:38:49;-1.40;99.90
17385;DHT22;8810;48.680;8.894;2022-12-18T14:41:18;-1.40;99.90
17385;DHT22;8810;48.680;8.894;2022-12-18T14:43:47;-1.50;99.90
17385;DHT22;8810;48.680;8.894;2022-12-18T14:46:29;-1.50;99.90
17385;DHT22;8810;48.680;8.894;2022-12-18T14:48:58;-1.60;99.90
17385;DHT22;8810;48.680;8.894;2022-12-18T14:51:26;-1.60;99.90
17385;DHT22;8810;48.680;8.894;2022-12-18T14:53:57;-1.70;99.90
17385;DHT22;8810;48.680;8.894;2022-12-18T14:56:27;-1.80;99.90
17385;DHT22;8810;48.680;8.894;2022-12-18T14:58:57;-1.80;99.90
17385;DHT22;8810;48.680;8.894;2022-12-18T15:01:27;-1.90;99.90
17385;DHT22;8810;48.680;8.894;2022-12-18T15:03:55;-2.00;99.90
17385;DHT22;8810;48.680;8.894;2022-12-18T15:06:28;-2.10;99.90
17385;DHT22;8810;48.680;8.894;2022-12-18T15:08:58;-2.20;99.90
17385;DHT22;8810;48.680;8.894;2022-12-18T15:11:33;-2.30;99.90
17385;DHT22;8810;48.680;8.894;2022-12-18T15:14:22;-2.40;99.90
17385;DHT22;8810;48.680;8.894;2022-12-18T15:16:52;-2.50;99.90
17385;DHT22;8810;48.680;8.894;2022-12-18T15:19:20;-2.50;99.90
17385;DHT22;8810;48.680;8.894;2022-12-18T15:21:48;-2.60;99.90
17385;DHT22;8810;48.680;8.894;2022-12-18T15:24:20;-2.70;99.90
17385;DHT22;8810;48.680;8.894;2022-12-18T15:26:49;-2.80;99.90
17385;DHT22;8810;48.680;8.894;2022-12-18T15:29:20;-2.90;99.90
17385;DHT22;8810;48.680;8.894;2022-12-18T15:32:04;-2.90;99.90
17385;DHT22;8810;48.680;8.894;2022-12-18T15:34:32;-3.10;99.90
17385;DHT22;8810;48.680;8.894;2022-12-18T15:37:00;-3.10;99.90
17385;DHT22;8810;48.680;8.894;2022-12-18T15:39:28;-3.20;99.90
17385;DHT22;8810;48.680;8.894;2022-12-18T15:41:55;-3.30;99.90
17385;DHT22;8810;48.680;8.894;2022-12-18T15:44:39;-3.30;99.90
17385;DHT22;8810;48.680;8.894;2022-12-18T15:47:10;-3.30;99.90
17385;DHT22;8810;48.680;8.894;2022-12-18T15:49:37;-3.40;99.90
17385;DHT22;8810;48.680;8.894;2022-12-18T15:52:05;-3.40;99.90
17385;DHT22;8810;48.680;8.894;2022-12-18T15:54:33;-3.60;99.90
17385;DHT22;8810;48.680;8.894;2022-12-18T15:57:17;-3.70;99.90
17385;DHT22;8810;48.680;8.894;2022-12-18T15:59:51;-3.80;99.90
17385;DHT22;8810;48.680;8.894;2022-12-18T16:02:20;-3.90;99.90
17385;DHT22;8810;48.680;8.894;2022-12-18T16:04:48;-4.00;99.90